sensor_id;sensor_type;location;lat;lon;timestamp;pressure;altitude;pressure_sealevel;temperature;humidity
64687;BME280;51113;53.646;-113.674;2023-07-22T00:00:59;93736.09;;;27.26;44.08
64687;BME280;51113;53.646;-113.674;2023-07-22T00:03:28;93734.63;;;27.32;44.37
64687;BME280;51113;53.646;-113.674;2023-07-22T00:06:07;93729.06;;;27.14;44.75
64687;BME280;51113;53.646;-113.674;2023-07-22T00:08:38;93732.09;;;27.13;45.02
64687;BME280;51113;53.646;-113.674;2023-07-22T00:11:07;93730.22;;;27.13;44.93
64687;BME280;51113;53.646;-113.674;2023-07-22T00:13:36;93737.50;;;27.16;44.29
64687;BME280;51113;53.646;-113.674;2023-07-22T00:16:05;93713.72;;;27.04;44.44
64687;BME280;51113;53.646;-113.674;2023-07-22T00:18:36;93727.34;;;27.29;44.92
64687;BME280;51113;53.646;-113.674;2023-07-22T00:21:05;93730.00;;;27.29;44.36
64687;BME280;51113;53.646;-113.674;2023-07-22T00:23:35;93712.38;;;27.21;44.55
64687;BME280;51113;53.646;-113.674;2023-07-22T00:26:04;93710.81;;;27.16;44.61
64687;BME280;51113;53.646;-113.674;2023-07-22T00:28:34;93692.50;;;27.15;45.29
64687;BME280;51113;53.646;-113.674;2023-07-22T00:31:03;93691.28;;;27.09;45.25
64687;BME280;51113;53.646;-113.674;2023-07-22T00:33:32;93702.50;;;27.21;45.30
64687;BME280;51113;53.646;-113.674;2023-07-22T00:36:01;93706.28;;;27.20;44.79
64687;BME280;51113;53.646;-113.674;2023-07-22T00:38:29;93702.47;;;26.91;45.32
64687;BME280;51113;53.646;-113.674;2023-07-22T00:40:58;93703.59;;;26.90;45.49
64687;BME280;51113;53.646;-113.674;2023-07-22T00:43:27;93710.97;;;26.70;46.18
64687;BME280;51113;53.646;-113.674;2023-07-22T00:45:56;93717.84;;;26.71;46.44
64687;BME280;51113;53.646;-113.674;2023-07-22T00:48:25;93716.25;;;26.67;45.13
64687;BME280;51113;53.646;-113.674;2023-07-22T00:50:55;93728.53;;;26.75;44.08
64687;BME280;51113;53.646;-113.674;2023-07-22T00:53:24;93732.34;;;26.74;42.91
64687;BME280;51113;53.646;-113.674;2023-07-22T00:55:54;93728.75;;;26.63;42.47
64687;BME280;51113;53.646;-113.674;2023-07-22T00:58:22;93719.78;;;26.48;43.18
64687;BME280;51113;53.646;-113.674;2023-07-22T01:00:51;93730.91;;;26.54;43.39
64687;BME280;51113;53.646;-113.674;2023-07-22T01:03:21;93748.13;;;26.60;43.56
64687;BME280;51113;53.646;-113.674;2023-07-22T01:05:51;93743.47;;;26.53;43.61
64687;BME280;51113;53.646;-113.674;2023-07-22T01:08:21;93747.59;;;26.51;43.88
64687;BME280;51113;53.646;-113.674;2023-07-22T01:10:49;93748.31;;;26.48;45.47
64687;BME280;51113;53.646;-113.674;2023-07-22T01:13:18;93745.31;;;26.49;46.48
64687;BME280;51113;53.646;-113.674;2023-07-22T01:15:47;93734.47;;;26.38;48.09
64687;BME280;51113;53.646;-113.674;2023-07-22T01:18:18;93741.25;;;26.32;48.80
64687;BME280;51113;53.646;-113.674;2023-07-22T01:20:47;93736.47;;;26.22;49.44
64687;BME280;51113;53.646;-113.674;2023-07-22T01:23:17;93728.25;;;26.08;49.87
64687;BME280;51113;53.646;-113.674;2023-07-22T01:25:46;93709.75;;;25.92;49.07
64687;BME280;51113;53.646;-113.674;2023-07-22T01:28:15;93724.78;;;26.04;48.48
64687;BME280;51113;53.646;-113.674;2023-07-22T01:30:43;93731.88;;;25.96;48.62
64687;BME280;51113;53.646;-113.674;2023-07-22T01:33:13;93726.00;;;25.87;49.47
64687;BME280;51113;53.646;-113.674;2023-07-22T01:35:41;93716.78;;;25.81;48.99
64687;BME280;51113;53.646;-113.674;2023-07-22T01:38:10;93695.59;;;25.65;49.79
64687;BME280;51113;53.646;-113.674;2023-07-22T01:40:39;93696.69;;;25.64;50.48
64687;BME280;51113;53.646;-113.674;2023-07-22T01:43:08;93712.03;;;25.71;50.98
64687;BME280;51113;53.646;-113.674;2023-07-22T01:45:36;93710.00;;;25.64;52.65
64687;BME280;51113;53.646;-113.674;2023-07-22T01:48:07;93712.25;;;25.62;51.10
64687;BME280;51113;53.646;-113.674;2023-07-22T01:50:36;93707.91;;;25.54;51.20
64687;BME280;51113;53.646;-113.674;2023-07-22T01:53:05;93715.06;;;25.50;51.90
64687;BME280;51113;53.646;-113.674;2023-07-22T01:55:34;93709.69;;;25.47;51.14
64687;BME280;51113;53.646;-113.674;2023-07-22T01:58:03;93711.44;;;25.39;52.19
64687;BME280;51113;53.646;-113.674;2023-07-22T02:00:31;93707.88;;;25.31;51.53
64687;BME280;51113;53.646;-113.674;2023-07-22T02:03:00;93705.50;;;25.26;51.96
64687;BME280;51113;53.646;-113.674;2023-07-22T02:05:29;93701.59;;;25.20;51.87
64687;BME280;51113;53.646;-113.674;2023-07-22T02:07:59;93705.72;;;25.18;52.81
64687;BME280;51113;53.646;-113.674;2023-07-22T02:10:27;93691.50;;;25.10;52.45
64687;BME280;51113;53.646;-113.674;2023-07-22T02:12:56;93695.22;;;25.05;51.83
64687;BME280;51113;53.646;-113.674;2023-07-22T02:15:25;93685.03;;;24.92;51.87
64687;BME280;51113;53.646;-113.674;2023-07-22T02:17:54;93693.09;;;24.95;52.61
64687;BME280;51113;53.646;-113.674;2023-07-22T02:20:24;93681.31;;;24.77;52.78
64687;BME280;51113;53.646;-113.674;2023-07-22T02:22:57;93696.31;;;24.85;52.26
64687;BME280;51113;53.646;-113.674;2023-07-22T02:25:25;93682.31;;;24.69;53.33
64687;BME280;51113;53.646;-113.674;2023-07-22T02:27:54;93705.59;;;24.75;52.99
64687;BME280;51113;53.646;-113.674;2023-07-22T02:30:24;93704.75;;;24.71;52.61
64687;BME280;51113;53.646;-113.674;2023-07-22T02:32:53;93694.75;;;24.65;53.37
64687;BME280;51113;53.646;-113.674;2023-07-22T02:35:21;93699.56;;;24.59;53.85
64687;BME280;51113;53.646;-113.674;2023-07-22T02:37:49;93695.63;;;24.53;53.70
64687;BME280;51113;53.646;-113.674;2023-07-22T02:40:18;93702.75;;;24.49;54.11
64687;BME280;51113;53.646;-113.674;2023-07-22T02:42:47;93699.16;;;24.41;54.23
64687;BME280;51113;53.646;-113.674;2023-07-22T02:45:16;93689.06;;;24.31;54.20
64687;BME280;51113;53.646;-113.674;2023-07-22T02:47:45;93707.25;;;24.29;54.93
64687;BME280;51113;53.646;-113.674;2023-07-22T02:50:13;93701.81;;;24.26;55.22
64687;BME280;51113;53.646;-113.674;2023-07-22T02:52:42;93694.03;;;24.17;55.38
64687;BME280;51113;53.646;-113.674;2023-07-22T02:55:15;93700.28;;;24.09;55.81
64687;BME280;51113;53.646;-113.674;2023-07-22T02:57:48;93697.72;;;24.12;55.35
64687;BME280;51113;53.646;-113.674;2023-07-22T03:00:18;93700.53;;;24.04;55.93
64687;BME280;51113;53.646;-113.674;2023-07-22T03:02:54;93699.59;;;23.96;56.42
64687;BME280;51113;53.646;-113.674;2023-07-22T03:05:30;93702.59;;;23.95;56.21
64687;BME280;51113;53.646;-113.674;2023-07-22T03:07:59;93706.63;;;23.89;56.37
64687;BME280;51113;53.646;-113.674;2023-07-22T03:10:28;93703.78;;;23.81;56.67
64687;BME280;51113;53.646;-113.674;2023-07-22T03:12:57;93704.72;;;23.73;57.50
64687;BME280;51113;53.646;-113.674;2023-07-22T03:15:27;93701.47;;;23.64;57.93
64687;BME280;51113;53.646;-113.674;2023-07-22T03:17:57;93698.53;;;23.53;58.32
64687;BME280;51113;53.646;-113.674;2023-07-22T03:20:27;93686.00;;;23.38;58.45
64687;BME280;51113;53.646;-113.674;2023-07-22T03:22:56;93691.41;;;23.42;59.25
64687;BME280;51113;53.646;-113.674;2023-07-22T03:25:25;93692.84;;;23.39;58.87
64687;BME280;51113;53.646;-113.674;2023-07-22T03:27:54;93690.00;;;23.32;58.77
64687;BME280;51113;53.646;-113.674;2023-07-22T03:30:23;93717.81;;;23.38;58.75
64687;BME280;51113;53.646;-113.674;2023-07-22T03:32:52;93677.75;;;23.12;59.01
64687;BME280;51113;53.646;-113.674;2023-07-22T03:35:21;93713.78;;;23.29;59.33
64687;BME280;51113;53.646;-113.674;2023-07-22T03:37:51;93711.56;;;23.31;58.87
64687;BME280;51113;53.646;-113.674;2023-07-22T03:40:19;93713.53;;;23.34;58.49
64687;BME280;51113;53.646;-113.674;2023-07-22T03:42:52;93710.78;;;23.30;58.80
64687;BME280;51113;53.646;-113.674;2023-07-22T03:45:22;93712.47;;;23.23;59.13
64687;BME280;51113;53.646;-113.674;2023-07-22T03:47:52;93707.09;;;23.19;59.18
64687;BME280;51113;53.646;-113.674;2023-07-22T03:50:22;93711.81;;;23.26;58.60
64687;BME280;51113;53.646;-113.674;2023-07-22T03:52:51;93716.34;;;23.25;58.53
64687;BME280;51113;53.646;-113.674;2023-07-22T03:55:19;93714.03;;;23.24;58.34
64687;BME280;51113;53.646;-113.674;2023-07-22T03:57:48;93713.06;;;23.16;58.87
64687;BME280;51113;53.646;-113.674;2023-07-22T04:00:17;93695.75;;;23.06;59.21
64687;BME280;51113;53.646;-113.674;2023-07-22T04:02:46;93691.75;;;23.12;58.49
64687;BME280;51113;53.646;-113.674;2023-07-22T04:05:15;93690.84;;;23.20;58.12
64687;BME280;51113;53.646;-113.674;2023-07-22T04:07:44;93698.41;;;23.34;58.04
64687;BME280;51113;53.646;-113.674;2023-07-22T04:10:13;93685.09;;;23.18;58.38
64687;BME280;51113;53.646;-113.674;2023-07-22T04:12:42;93709.81;;;23.23;58.19
64687;BME280;51113;53.646;-113.674;2023-07-22T04:15:12;93723.94;;;22.99;59.67
64687;BME280;51113;53.646;-113.674;2023-07-22T04:17:41;93730.50;;;22.65;61.70
64687;BME280;51113;53.646;-113.674;2023-07-22T04:20:10;93746.28;;;22.49;62.71
64687;BME280;51113;53.646;-113.674;2023-07-22T04:22:38;93733.63;;;22.30;62.81
64687;BME280;51113;53.646;-113.674;2023-07-22T04:25:07;93751.47;;;22.33;63.37
64687;BME280;51113;53.646;-113.674;2023-07-22T04:27:37;93758.31;;;22.22;64.63
64687;BME280;51113;53.646;-113.674;2023-07-22T04:30:06;93771.88;;;21.75;67.74
64687;BME280;51113;53.646;-113.674;2023-07-22T04:32:35;93793.25;;;20.87;74.12
64687;BME280;51113;53.646;-113.674;2023-07-22T04:35:04;93781.88;;;20.36;76.83
64687;BME280;51113;53.646;-113.674;2023-07-22T04:37:35;93799.09;;;20.72;75.59
64687;BME280;51113;53.646;-113.674;2023-07-22T04:40:04;93784.16;;;20.76;73.70
64687;BME280;51113;53.646;-113.674;2023-07-22T04:42:34;93789.66;;;20.91;71.19
64687;BME280;51113;53.646;-113.674;2023-07-22T04:45:03;93760.47;;;20.88;69.32
64687;BME280;51113;53.646;-113.674;2023-07-22T04:47:32;93773.94;;;20.95;68.74
64687;BME280;51113;53.646;-113.674;2023-07-22T04:50:01;93760.03;;;20.86;68.66
64687;BME280;51113;53.646;-113.674;2023-07-22T04:52:30;93753.19;;;20.85;68.20
64687;BME280;51113;53.646;-113.674;2023-07-22T04:54:59;93739.56;;;20.83;67.51
64687;BME280;51113;53.646;-113.674;2023-07-22T04:57:28;93722.09;;;20.70;67.24
64687;BME280;51113;53.646;-113.674;2023-07-22T04:59:56;93707.53;;;20.63;67.43
64687;BME280;51113;53.646;-113.674;2023-07-22T05:02:25;93725.13;;;20.80;66.75
64687;BME280;51113;53.646;-113.674;2023-07-22T05:04:54;93693.25;;;20.64;66.97
64687;BME280;51113;53.646;-113.674;2023-07-22T05:07:22;93702.00;;;20.77;66.12
64687;BME280;51113;53.646;-113.674;2023-07-22T05:09:51;93694.41;;;20.76;67.56
64687;BME280;51113;53.646;-113.674;2023-07-22T05:12:20;93698.47;;;20.52;68.94
64687;BME280;51113;53.646;-113.674;2023-07-22T05:14:49;93709.19;;;20.47;68.12
64687;BME280;51113;53.646;-113.674;2023-07-22T05:17:17;93708.16;;;20.40;68.85
64687;BME280;51113;53.646;-113.674;2023-07-22T05:19:46;93703.41;;;20.54;66.11
64687;BME280;51113;53.646;-113.674;2023-07-22T05:22:17;93683.84;;;20.76;64.06
64687;BME280;51113;53.646;-113.674;2023-07-22T05:24:46;93695.63;;;20.99;64.42
64687;BME280;51113;53.646;-113.674;2023-07-22T05:27:15;93701.03;;;21.03;63.95
64687;BME280;51113;53.646;-113.674;2023-07-22T05:29:44;93711.25;;;21.04;63.47
64687;BME280;51113;53.646;-113.674;2023-07-22T05:32:13;93685.13;;;20.90;63.67
64687;BME280;51113;53.646;-113.674;2023-07-22T05:34:59;93697.50;;;20.99;64.91
64687;BME280;51113;53.646;-113.674;2023-07-22T05:37:29;93696.78;;;20.89;66.44
64687;BME280;51113;53.646;-113.674;2023-07-22T05:39:59;93695.13;;;20.64;67.89
64687;BME280;51113;53.646;-113.674;2023-07-22T05:42:28;93665.81;;;20.57;68.02
64687;BME280;51113;53.646;-113.674;2023-07-22T05:44:57;93660.16;;;20.67;67.71
64687;BME280;51113;53.646;-113.674;2023-07-22T05:47:26;93652.16;;;20.76;67.42
64687;BME280;51113;53.646;-113.674;2023-07-22T05:49:55;93653.84;;;20.80;67.41
64687;BME280;51113;53.646;-113.674;2023-07-22T05:52:25;93651.31;;;20.84;67.22
64687;BME280;51113;53.646;-113.674;2023-07-22T05:54:53;93683.31;;;21.03;66.70
64687;BME280;51113;53.646;-113.674;2023-07-22T05:57:22;93682.41;;;20.99;66.66
64687;BME280;51113;53.646;-113.674;2023-07-22T05:59:50;93669.16;;;20.87;66.47
64687;BME280;51113;53.646;-113.674;2023-07-22T06:02:34;93676.88;;;20.92;66.04
64687;BME280;51113;53.646;-113.674;2023-07-22T06:05:03;93681.25;;;20.88;66.02
64687;BME280;51113;53.646;-113.674;2023-07-22T06:07:32;93708.06;;;20.99;66.17
64687;BME280;51113;53.646;-113.674;2023-07-22T06:10:02;93676.03;;;21.00;65.76
64687;BME280;51113;53.646;-113.674;2023-07-22T06:12:31;93697.22;;;21.12;65.32
64687;BME280;51113;53.646;-113.674;2023-07-22T06:15:00;93677.13;;;20.99;65.30
64687;BME280;51113;53.646;-113.674;2023-07-22T06:17:29;93686.41;;;21.05;65.85
64687;BME280;51113;53.646;-113.674;2023-07-22T06:19:57;93678.63;;;20.88;65.88
64687;BME280;51113;53.646;-113.674;2023-07-22T06:22:26;93676.94;;;20.83;65.65
64687;BME280;51113;53.646;-113.674;2023-07-22T06:24:55;93682.56;;;20.82;66.03
64687;BME280;51113;53.646;-113.674;2023-07-22T06:27:24;93688.03;;;20.98;65.02
64687;BME280;51113;53.646;-113.674;2023-07-22T06:29:53;93677.91;;;21.00;64.93
64687;BME280;51113;53.646;-113.674;2023-07-22T06:32:22;93687.81;;;21.03;64.71
64687;BME280;51113;53.646;-113.674;2023-07-22T06:34:50;93694.53;;;21.00;64.68
64687;BME280;51113;53.646;-113.674;2023-07-22T06:37:19;93684.47;;;20.93;64.90
64687;BME280;51113;53.646;-113.674;2023-07-22T06:39:48;93676.75;;;20.88;65.39
64687;BME280;51113;53.646;-113.674;2023-07-22T06:42:17;93689.25;;;21.00;65.27
64687;BME280;51113;53.646;-113.674;2023-07-22T06:44:45;93677.97;;;20.91;65.19
64687;BME280;51113;53.646;-113.674;2023-07-22T06:47:14;93699.59;;;21.05;65.44
64687;BME280;51113;53.646;-113.674;2023-07-22T06:49:43;93680.50;;;20.87;66.40
64687;BME280;51113;53.646;-113.674;2023-07-22T06:52:13;93692.97;;;20.99;66.81
64687;BME280;51113;53.646;-113.674;2023-07-22T06:54:42;93673.88;;;20.81;68.15
64687;BME280;51113;53.646;-113.674;2023-07-22T06:57:11;93697.09;;;20.88;68.03
64687;BME280;51113;53.646;-113.674;2023-07-22T06:59:40;93687.31;;;20.88;68.57
64687;BME280;51113;53.646;-113.674;2023-07-22T07:02:08;93684.69;;;20.88;68.80
64687;BME280;51113;53.646;-113.674;2023-07-22T07:04:37;93675.97;;;20.88;69.16
64687;BME280;51113;53.646;-113.674;2023-07-22T07:07:06;93682.81;;;20.89;69.79
64687;BME280;51113;53.646;-113.674;2023-07-22T07:09:35;93668.13;;;20.79;69.58
64687;BME280;51113;53.646;-113.674;2023-07-22T07:12:04;93687.78;;;20.90;69.61
64687;BME280;51113;53.646;-113.674;2023-07-22T07:14:35;93691.50;;;20.89;69.81
64687;BME280;51113;53.646;-113.674;2023-07-22T07:17:04;93704.06;;;20.92;70.03
64687;BME280;51113;53.646;-113.674;2023-07-22T07:19:33;93701.75;;;20.91;70.14
64687;BME280;51113;53.646;-113.674;2023-07-22T07:22:02;93708.44;;;20.88;70.25
64687;BME280;51113;53.646;-113.674;2023-07-22T07:24:31;93703.28;;;20.71;70.93
64687;BME280;51113;53.646;-113.674;2023-07-22T07:26:59;93721.19;;;20.86;70.32
64687;BME280;51113;53.646;-113.674;2023-07-22T07:29:28;93702.84;;;20.90;69.49
64687;BME280;51113;53.646;-113.674;2023-07-22T07:31:59;93732.97;;;20.89;71.09
64687;BME280;51113;53.646;-113.674;2023-07-22T07:34:28;93736.19;;;20.74;71.10
64687;BME280;51113;53.646;-113.674;2023-07-22T07:36:57;93729.50;;;20.55;72.12
64687;BME280;51113;53.646;-113.674;2023-07-22T07:39:26;93747.31;;;20.58;71.85
64687;BME280;51113;53.646;-113.674;2023-07-22T07:41:55;93761.97;;;20.47;72.66
64687;BME280;51113;53.646;-113.674;2023-07-22T07:44:23;93760.19;;;20.60;72.44
64687;BME280;51113;53.646;-113.674;2023-07-22T07:46:52;93747.06;;;20.13;74.40
64687;BME280;51113;53.646;-113.674;2023-07-22T07:49:20;93731.22;;;19.75;76.26
64687;BME280;51113;53.646;-113.674;2023-07-22T07:51:49;93760.06;;;19.80;76.98
64687;BME280;51113;53.646;-113.674;2023-07-22T07:54:19;93770.78;;;19.75;77.42
64687;BME280;51113;53.646;-113.674;2023-07-22T07:56:47;93779.34;;;19.55;78.57
64687;BME280;51113;53.646;-113.674;2023-07-22T07:59:16;93758.13;;;19.17;79.55
64687;BME280;51113;53.646;-113.674;2023-07-22T08:01:45;93788.94;;;19.16;80.47
64687;BME280;51113;53.646;-113.674;2023-07-22T08:04:14;93771.91;;;18.79;80.63
64687;BME280;51113;53.646;-113.674;2023-07-22T08:06:45;93794.94;;;18.74;80.77
64687;BME280;51113;53.646;-113.674;2023-07-22T08:09:14;93779.53;;;18.41;81.25
64687;BME280;51113;53.646;-113.674;2023-07-22T08:11:47;93811.41;;;18.48;81.90
64687;BME280;51113;53.646;-113.674;2023-07-22T08:14:16;93789.72;;;18.34;81.76
64687;BME280;51113;53.646;-113.674;2023-07-22T08:16:46;93776.88;;;18.32;81.62
64687;BME280;51113;53.646;-113.674;2023-07-22T08:19:16;93805.53;;;18.43;81.23
64687;BME280;51113;53.646;-113.674;2023-07-22T08:21:44;93780.41;;;18.28;81.26
64687;BME280;51113;53.646;-113.674;2023-07-22T08:24:13;93771.91;;;18.31;80.78
64687;BME280;51113;53.646;-113.674;2023-07-22T08:26:42;93789.28;;;18.40;80.69
64687;BME280;51113;53.646;-113.674;2023-07-22T08:29:11;93764.16;;;18.26;80.64
64687;BME280;51113;53.646;-113.674;2023-07-22T08:31:40;93774.28;;;18.41;80.43
64687;BME280;51113;53.646;-113.674;2023-07-22T08:34:09;93741.44;;;18.30;80.38
64687;BME280;51113;53.646;-113.674;2023-07-22T08:36:37;93757.09;;;18.44;80.06
64687;BME280;51113;53.646;-113.674;2023-07-22T08:39:06;93745.66;;;18.48;79.57
64687;BME280;51113;53.646;-113.674;2023-07-22T08:41:36;93742.88;;;18.45;80.03
64687;BME280;51113;53.646;-113.674;2023-07-22T08:44:07;93745.34;;;18.41;80.13
64687;BME280;51113;53.646;-113.674;2023-07-22T08:46:36;93725.66;;;18.30;80.19
64687;BME280;51113;53.646;-113.674;2023-07-22T08:49:07;93749.53;;;18.42;80.77
64687;BME280;51113;53.646;-113.674;2023-07-22T08:51:37;93765.00;;;18.44;80.27
64687;BME280;51113;53.646;-113.674;2023-07-22T08:54:09;93752.88;;;18.25;80.76
64687;BME280;51113;53.646;-113.674;2023-07-22T08:56:38;93776.97;;;18.19;82.54
64687;BME280;51113;53.646;-113.674;2023-07-22T08:59:08;93780.38;;;17.80;85.32
64687;BME280;51113;53.646;-113.674;2023-07-22T09:01:38;93777.31;;;17.64;86.01
64687;BME280;51113;53.646;-113.674;2023-07-22T09:04:07;93746.47;;;17.47;86.01
64687;BME280;51113;53.646;-113.674;2023-07-22T09:06:37;93754.19;;;17.66;85.16
64687;BME280;51113;53.646;-113.674;2023-07-22T09:09:07;93749.69;;;17.66;85.40
64687;BME280;51113;53.646;-113.674;2023-07-22T09:11:37;93739.53;;;17.73;84.07
64687;BME280;51113;53.646;-113.674;2023-07-22T09:14:06;93733.72;;;17.85;82.44
64687;BME280;51113;53.646;-113.674;2023-07-22T09:16:38;93734.66;;;17.89;82.43
64687;BME280;51113;53.646;-113.674;2023-07-22T09:19:07;93731.44;;;17.92;81.61
64687;BME280;51113;53.646;-113.674;2023-07-22T09:21:36;93729.06;;;17.82;81.93
64687;BME280;51113;53.646;-113.674;2023-07-22T09:24:26;93737.59;;;17.88;81.90
64687;BME280;51113;53.646;-113.674;2023-07-22T09:26:59;93715.16;;;17.82;80.84
64687;BME280;51113;53.646;-113.674;2023-07-22T09:29:35;93710.69;;;17.82;81.31
64687;BME280;51113;53.646;-113.674;2023-07-22T09:32:05;93730.69;;;18.00;80.33
64687;BME280;51113;53.646;-113.674;2023-07-22T09:34:34;93723.50;;;17.84;81.68
64687;BME280;51113;53.646;-113.674;2023-07-22T09:37:04;93730.16;;;17.81;82.29
64687;BME280;51113;53.646;-113.674;2023-07-22T09:39:35;93709.16;;;17.59;81.79
64687;BME280;51113;53.646;-113.674;2023-07-22T09:42:04;93725.34;;;17.52;82.94
64687;BME280;51113;53.646;-113.674;2023-07-22T09:44:33;93699.50;;;17.46;82.31
64687;BME280;51113;53.646;-113.674;2023-07-22T09:47:07;93723.78;;;17.73;80.57
64687;BME280;51113;53.646;-113.674;2023-07-22T09:49:40;93717.16;;;17.76;80.66
64687;BME280;51113;53.646;-113.674;2023-07-22T09:52:10;93714.69;;;17.80;79.93
64687;BME280;51113;53.646;-113.674;2023-07-22T09:54:49;93710.81;;;17.77;80.79
64687;BME280;51113;53.646;-113.674;2023-07-22T09:57:18;93697.50;;;17.42;81.54
64687;BME280;51113;53.646;-113.674;2023-07-22T09:59:49;93714.28;;;17.64;81.04
64687;BME280;51113;53.646;-113.674;2023-07-22T10:02:21;93701.56;;;17.57;80.91
64687;BME280;51113;53.646;-113.674;2023-07-22T10:04:52;93688.34;;;17.40;81.55
64687;BME280;51113;53.646;-113.674;2023-07-22T10:07:21;93702.56;;;17.39;81.91
64687;BME280;51113;53.646;-113.674;2023-07-22T10:09:51;93696.53;;;17.38;81.87
64687;BME280;51113;53.646;-113.674;2023-07-22T10:12:24;93694.38;;;17.40;82.40
64687;BME280;51113;53.646;-113.674;2023-07-22T10:14:53;93673.41;;;17.18;82.20
64687;BME280;51113;53.646;-113.674;2023-07-22T10:17:22;93698.88;;;17.18;82.92
64687;BME280;51113;53.646;-113.674;2023-07-22T10:19:52;93682.31;;;17.08;82.40
64687;BME280;51113;53.646;-113.674;2023-07-22T10:22:22;93705.56;;;17.24;82.72
64687;BME280;51113;53.646;-113.674;2023-07-22T10:24:53;93698.25;;;17.43;81.69
64687;BME280;51113;53.646;-113.674;2023-07-22T10:27:23;93686.72;;;17.53;80.66
64687;BME280;51113;53.646;-113.674;2023-07-22T10:29:54;93688.78;;;17.64;79.82
64687;BME280;51113;53.646;-113.674;2023-07-22T10:32:23;93676.38;;;17.56;79.50
64687;BME280;51113;53.646;-113.674;2023-07-22T10:34:52;93671.69;;;17.44;79.55
64687;BME280;51113;53.646;-113.674;2023-07-22T10:37:20;93692.31;;;17.60;79.21
64687;BME280;51113;53.646;-113.674;2023-07-22T10:39:52;93713.69;;;17.67;79.00
64687;BME280;51113;53.646;-113.674;2023-07-22T10:42:25;93708.91;;;17.69;79.24
64687;BME280;51113;53.646;-113.674;2023-07-22T10:44:53;93687.06;;;17.60;78.88
64687;BME280;51113;53.646;-113.674;2023-07-22T10:47:33;93677.94;;;17.57;78.42
64687;BME280;51113;53.646;-113.674;2023-07-22T10:50:06;93690.25;;;17.79;77.84
64687;BME280;51113;53.646;-113.674;2023-07-22T10:52:44;93682.03;;;17.72;77.76
64687;BME280;51113;53.646;-113.674;2023-07-22T10:55:17;93666.06;;;17.60;78.04
64687;BME280;51113;53.646;-113.674;2023-07-22T10:57:49;93679.56;;;17.67;77.93
64687;BME280;51113;53.646;-113.674;2023-07-22T11:00:21;93671.06;;;17.70;77.15
64687;BME280;51113;53.646;-113.674;2023-07-22T11:03:13;93670.31;;;17.78;76.25
64687;BME280;51113;53.646;-113.674;2023-07-22T11:05:49;93676.34;;;17.79;76.30
64687;BME280;51113;53.646;-113.674;2023-07-22T11:08:38;93676.44;;;17.65;77.19
64687;BME280;51113;53.646;-113.674;2023-07-22T11:11:07;93671.56;;;17.81;76.28
64687;BME280;51113;53.646;-113.674;2023-07-22T11:13:39;93659.66;;;17.83;76.10
64687;BME280;51113;53.646;-113.674;2023-07-22T11:16:10;93642.53;;;17.94;75.86
64687;BME280;51113;53.646;-113.674;2023-07-22T11:18:40;93657.28;;;18.13;75.38
64687;BME280;51113;53.646;-113.674;2023-07-22T11:21:11;93663.31;;;18.22;75.50
64687;BME280;51113;53.646;-113.674;2023-07-22T11:23:40;93674.31;;;18.24;75.42
64687;BME280;51113;53.646;-113.674;2023-07-22T11:26:10;93673.97;;;18.08;77.56
64687;BME280;51113;53.646;-113.674;2023-07-22T11:28:39;93676.75;;;18.12;76.23
64687;BME280;51113;53.646;-113.674;2023-07-22T11:31:10;93666.25;;;18.12;76.20
64687;BME280;51113;53.646;-113.674;2023-07-22T11:33:40;93658.63;;;18.01;76.15
64687;BME280;51113;53.646;-113.674;2023-07-22T11:36:11;93679.84;;;18.14;76.28
64687;BME280;51113;53.646;-113.674;2023-07-22T11:38:39;93661.25;;;18.01;76.10
64687;BME280;51113;53.646;-113.674;2023-07-22T11:41:08;93676.78;;;18.20;75.71
64687;BME280;51113;53.646;-113.674;2023-07-22T11:43:40;93683.59;;;18.30;75.44
64687;BME280;51113;53.646;-113.674;2023-07-22T11:46:09;93654.66;;;18.30;75.19
64687;BME280;51113;53.646;-113.674;2023-07-22T11:48:38;93676.50;;;18.48;75.27
64687;BME280;51113;53.646;-113.674;2023-07-22T11:51:07;93658.22;;;18.34;75.09
64687;BME280;51113;53.646;-113.674;2023-07-22T11:53:36;93657.63;;;18.37;75.36
64687;BME280;51113;53.646;-113.674;2023-07-22T11:56:05;93664.72;;;18.45;75.14
64687;BME280;51113;53.646;-113.674;2023-07-22T11:58:33;93664.28;;;18.52;75.23
64687;BME280;51113;53.646;-113.674;2023-07-22T12:01:10;93658.41;;;18.55;75.15
64687;BME280;51113;53.646;-113.674;2023-07-22T12:03:39;93646.00;;;18.47;74.92
64687;BME280;51113;53.646;-113.674;2023-07-22T12:06:08;93659.00;;;18.60;75.00
64687;BME280;51113;53.646;-113.674;2023-07-22T12:08:43;93645.41;;;18.50;75.19
64687;BME280;51113;53.646;-113.674;2023-07-22T12:11:20;93645.88;;;18.52;74.39
64687;BME280;51113;53.646;-113.674;2023-07-22T12:14:11;93660.44;;;18.66;74.79
64687;BME280;51113;53.646;-113.674;2023-07-22T12:16:42;93655.19;;;18.66;74.52
64687;BME280;51113;53.646;-113.674;2023-07-22T12:19:11;93651.16;;;18.69;74.51
64687;BME280;51113;53.646;-113.674;2023-07-22T12:21:40;93623.44;;;18.63;74.20
64687;BME280;51113;53.646;-113.674;2023-07-22T12:24:13;93619.25;;;18.70;73.21
64687;BME280;51113;53.646;-113.674;2023-07-22T12:26:43;93633.34;;;18.83;73.57
64687;BME280;51113;53.646;-113.674;2023-07-22T12:29:11;93636.13;;;18.87;73.26
64687;BME280;51113;53.646;-113.674;2023-07-22T12:31:40;93633.50;;;18.87;73.23
64687;BME280;51113;53.646;-113.674;2023-07-22T12:34:09;93624.34;;;18.84;73.31
64687;BME280;51113;53.646;-113.674;2023-07-22T12:36:38;93616.47;;;18.84;73.03
64687;BME280;51113;53.646;-113.674;2023-07-22T12:39:07;93603.16;;;18.81;73.18
64687;BME280;51113;53.646;-113.674;2023-07-22T12:41:35;93606.72;;;18.76;73.53
64687;BME280;51113;53.646;-113.674;2023-07-22T12:44:04;93594.50;;;18.71;73.95